createdAt,value
2023-03-22T00:01:54.150Z,47.70
2023-03-22T00:04:20.423Z,48.82
2023-03-22T00:06:46.662Z,47.96
2023-03-22T00:09:12.935Z,46.62
2023-03-22T00:11:39.236Z,47.05
2023-03-22T00:14:05.480Z,48.00
2023-03-22T00:16:31.831Z,48.06
2023-03-22T00:18:58.134Z,48.26
2023-03-22T00:21:24.428Z,48.28
2023-03-22T00:23:50.700Z,47.75
2023-03-22T00:26:16.941Z,47.13
2023-03-22T00:28:43.174Z,47.50
2023-03-22T00:31:09.477Z,47.99
2023-03-22T00:33:35.745Z,47.81
2023-03-22T00:36:01.988Z,47.98
2023-03-22T00:38:41.413Z,47.92
2023-03-22T00:41:08.534Z,47.29
2023-03-22T00:43:34.829Z,47.00
2023-03-22T00:46:01.067Z,47.85
2023-03-22T00:48:27.326Z,47.12
2023-03-22T00:50:53.545Z,47.28
2023-03-22T00:53:19.783Z,47.42
2023-03-22T00:55:46.020Z,47.01
2023-03-22T00:58:12.280Z,45.58
2023-03-22T01:00:38.763Z,45.69
2023-03-22T01:03:05.161Z,45.91
2023-03-22T01:05:31.413Z,45.90
2023-03-22T01:07:57.668Z,46.77
2023-03-22T01:10:23.916Z,46.78
2023-03-22T01:12:50.164Z,46.77
2023-03-22T01:15:16.399Z,47.37
2023-03-22T01:17:42.654Z,47.94
2023-03-22T01:20:08.880Z,48.88
2023-03-22T01:22:35.305Z,47.64
2023-03-22T01:25:01.605Z,47.92
2023-03-22T01:27:27.820Z,47.96
2023-03-22T01:29:54.046Z,48.16
2023-03-22T01:32:20.302Z,47.58
2023-03-22T01:34:46.529Z,47.01
2023-03-22T01:37:12.757Z,47.21
2023-03-22T01:39:39.039Z,47.33
2023-03-22T01:42:05.292Z,47.29
2023-03-22T01:44:31.554Z,47.77
2023-03-22T01:46:57.815Z,46.63
2023-03-22T01:49:24.105Z,46.50
2023-03-22T01:51:50.372Z,46.21
2023-03-22T01:54:16.602Z,46.35
2023-03-22T01:56:42.928Z,47.66
2023-03-22T01:59:09.149Z,46.44
2023-03-22T02:01:35.401Z,46.92
2023-03-22T02:04:01.695Z,47.47
2023-03-22T02:06:27.945Z,48.15
2023-03-22T02:08:54.280Z,47.37
2023-03-22T02:11:20.547Z,47.64
2023-03-22T02:13:46.788Z,47.51
2023-03-22T02:16:13.111Z,47.67
2023-03-22T02:18:39.660Z,47.62
2023-03-22T02:21:05.889Z,47.71
2023-03-22T02:23:32.138Z,47.81
2023-03-22T02:25:58.371Z,47.69
2023-03-22T02:28:24.631Z,48.09
2023-03-22T02:30:50.922Z,49.34
2023-03-22T02:33:17.254Z,49.50
2023-03-22T02:35:43.604Z,49.75
2023-03-22T02:38:09.908Z,49.26
2023-03-22T02:40:36.137Z,49.27
2023-03-22T02:43:02.360Z,49.26
2023-03-22T02:45:28.588Z,48.97
2023-03-22T02:47:54.840Z,49.46
2023-03-22T02:50:21.088Z,49.71
2023-03-22T02:52:47.375Z,49.38
2023-03-22T02:55:13.664Z,49.13
2023-03-22T02:57:39.953Z,48.39
2023-03-22T03:00:06.181Z,47.38
2023-03-22T03:02:32.420Z,47.10
2023-03-22T03:04:59.407Z,46.25
2023-03-22T03:07:25.633Z,46.30
2023-03-22T03:09:51.886Z,45.80
2023-03-22T03:12:18.037Z,45.70
2023-03-22T03:14:44.185Z,45.74
2023-03-22T03:17:10.416Z,46.28
2023-03-22T03:19:36.657Z,46.64
2023-03-22T03:22:02.967Z,46.83
2023-03-22T03:24:29.195Z,47.04
2023-03-22T03:26:55.415Z,46.72
2023-03-22T03:29:21.731Z,46.96
2023-03-22T03:31:48.030Z,46.72
2023-03-22T03:34:14.286Z,47.15
2023-03-22T03:36:40.568Z,46.60
2023-03-22T03:39:06.801Z,47.29
2023-03-22T03:41:33.063Z,46.32
2023-03-22T03:43:59.315Z,46.30
2023-03-22T03:46:25.553Z,46.71
2023-03-22T03:48:51.818Z,46.84
2023-03-22T03:51:18.077Z,46.79
2023-03-22T03:53:44.343Z,47.11
2023-03-22T03:56:10.644Z,47.14
2023-03-22T03:58:36.930Z,47.52
2023-03-22T04:01:03.160Z,47.64
2023-03-22T04:03:29.413Z,46.98
2023-03-22T04:05:55.644Z,46.97
2023-03-22T04:08:21.952Z,47.50
2023-03-22T04:10:48.190Z,47.85
2023-03-22T04:13:14.453Z,48.47
2023-03-22T04:15:40.684Z,48.52
2023-03-22T04:18:06.922Z,48.96
2023-03-22T04:20:33.157Z,48.37
2023-03-22T04:22:59.408Z,47.33
2023-03-22T04:25:25.665Z,46.87
2023-03-22T04:27:51.925Z,46.53
2023-03-22T04:30:18.159Z,47.07
2023-03-22T04:32:44.456Z,47.43
2023-03-22T04:35:11.106Z,47.08
2023-03-22T04:37:37.366Z,47.62
2023-03-22T04:40:03.654Z,47.38
2023-03-22T04:42:29.894Z,47.47
2023-03-22T04:44:56.149Z,47.42
2023-03-22T04:47:22.406Z,47.36
2023-03-22T04:49:48.632Z,46.94
2023-03-22T04:52:14.883Z,48.07
2023-03-22T04:54:41.128Z,48.85
2023-03-22T04:57:07.377Z,47.70
2023-03-22T04:59:33.639Z,47.80
2023-03-22T05:01:59.969Z,48.86
2023-03-22T05:04:26.298Z,49.39
2023-03-22T05:06:52.636Z,49.09
2023-03-22T05:09:19.998Z,48.62
2023-03-22T05:11:47.758Z,48.80
2023-03-22T05:14:14.055Z,49.62
2023-03-22T05:16:40.296Z,48.15
2023-03-22T05:19:06.576Z,47.73
2023-03-22T05:21:32.853Z,47.61
2023-03-22T05:23:59.080Z,49.14
2023-03-22T05:26:25.337Z,48.41
2023-03-22T05:28:51.611Z,47.90
2023-03-22T05:31:17.935Z,48.69
2023-03-22T05:33:44.269Z,49.28
2023-03-22T05:36:10.520Z,49.03
2023-03-22T05:38:36.773Z,49.88
2023-03-22T05:41:03.087Z,50.13
2023-03-22T05:43:29.341Z,49.23
2023-03-22T05:45:55.620Z,50.17
2023-03-22T05:48:21.888Z,49.68
2023-03-22T05:50:48.152Z,49.70
2023-03-22T05:53:14.371Z,50.44
2023-03-22T05:55:40.754Z,49.29
2023-03-22T05:58:07.033Z,49.74
2023-03-22T06:00:33.296Z,50.29
2023-03-22T06:02:59.628Z,49.89
2023-03-22T06:05:25.924Z,49.19
2023-03-22T06:07:52.198Z,48.44
2023-03-22T06:10:18.460Z,48.73
2023-03-22T06:12:44.724Z,49.19
2023-03-22T06:15:10.986Z,49.17
2023-03-22T06:17:37.324Z,49.47
2023-03-22T06:20:03.566Z,49.95
2023-03-22T06:22:29.810Z,49.82
2023-03-22T06:24:56.103Z,49.37
2023-03-22T06:27:22.339Z,48.97
2023-03-22T06:29:48.629Z,47.59
2023-03-22T06:32:14.884Z,47.72
2023-03-22T06:34:41.121Z,47.52
2023-03-22T06:37:07.379Z,47.38
2023-03-22T06:39:33.616Z,47.73
2023-03-22T06:41:59.844Z,47.86
2023-03-22T06:44:26.096Z,48.55
2023-03-22T06:46:53.499Z,46.72
2023-03-22T06:49:19.755Z,46.36
2023-03-22T06:51:46.219Z,46.83
2023-03-22T06:54:12.612Z,47.36
2023-03-22T06:56:38.958Z,47.65
2023-03-22T06:59:05.185Z,47.10
2023-03-22T07:01:31.483Z,46.92
2023-03-22T07:03:57.788Z,46.37
2023-03-22T07:06:24.064Z,46.23
2023-03-22T07:08:51.962Z,45.96
2023-03-22T07:11:18.409Z,45.50
2023-03-22T07:13:44.853Z,45.63
2023-03-22T07:16:11.241Z,45.69
2023-03-22T07:18:37.517Z,45.89
2023-03-22T07:21:03.772Z,45.65
2023-03-22T07:23:30.013Z,45.22
2023-03-22T07:25:56.262Z,46.89
2023-03-22T07:28:22.521Z,47.38
2023-03-22T07:30:48.798Z,47.98
2023-03-22T07:33:15.058Z,47.15
2023-03-22T07:35:41.331Z,47.00
2023-03-22T07:38:07.657Z,45.18
2023-03-22T07:40:33.971Z,46.65
2023-03-22T07:43:00.248Z,45.42
2023-03-22T07:45:26.559Z,46.86
2023-03-22T07:47:52.890Z,47.20
2023-03-22T07:50:19.162Z,46.05
2023-03-22T07:52:45.423Z,46.27
2023-03-22T07:55:11.654Z,46.39
2023-03-22T07:57:38.055Z,44.67
2023-03-22T08:00:04.310Z,45.33
2023-03-22T08:02:30.568Z,44.71
2023-03-22T08:04:56.855Z,44.88
2023-03-22T08:07:23.200Z,44.07
2023-03-22T08:09:49.733Z,43.16
2023-03-22T08:12:16.182Z,43.07
2023-03-22T08:14:42.492Z,44.32
2023-03-22T08:17:08.806Z,43.51
2023-03-22T08:19:35.089Z,43.04
2023-03-22T08:22:01.346Z,39.54
2023-03-22T08:24:27.630Z,42.94
2023-03-22T08:26:54.118Z,40.39
2023-03-22T08:29:20.413Z,40.16
2023-03-22T08:31:46.791Z,37.15
2023-03-22T08:34:13.139Z,38.19
2023-03-22T08:36:39.487Z,38.98
2023-03-22T08:39:05.815Z,37.91
2023-03-22T08:41:32.082Z,38.76
2023-03-22T08:43:58.364Z,38.82
2023-03-22T08:46:24.659Z,39.50
2023-03-22T08:48:50.933Z,39.06
2023-03-22T08:51:18.914Z,39.53
2023-03-22T08:53:45.545Z,38.87
2023-03-22T08:56:11.799Z,38.37
2023-03-22T08:58:38.051Z,39.10
2023-03-22T09:01:04.397Z,39.15
2023-03-22T09:03:30.772Z,39.21
2023-03-22T09:05:57.022Z,38.99
2023-03-22T09:08:23.311Z,39.58
2023-03-22T09:10:49.566Z,39.37
2023-03-22T09:13:15.840Z,40.12
2023-03-22T09:15:43.554Z,40.27
2023-03-22T09:18:10.167Z,40.96
2023-03-22T09:20:36.586Z,40.65
2023-03-22T09:23:02.951Z,41.82
2023-03-22T09:25:29.198Z,41.74
2023-03-22T09:27:55.457Z,42.92
2023-03-22T09:30:23.311Z,42.41
2023-03-22T09:32:50.411Z,41.68
2023-03-22T09:35:16.705Z,39.44
2023-03-22T09:37:43.035Z,38.33
2023-03-22T09:40:09.355Z,38.95
2023-03-22T09:42:35.613Z,38.18
2023-03-22T09:45:01.882Z,37.92
2023-03-22T09:47:33.212Z,37.82
2023-03-22T09:50:08.631Z,37.59
2023-03-22T09:52:34.992Z,36.22
2023-03-22T09:55:01.391Z,37.53
2023-03-22T09:57:27.718Z,38.08
2023-03-22T09:59:54.104Z,38.44
2023-03-22T10:02:20.645Z,38.24
2023-03-22T10:04:47.025Z,37.13
2023-03-22T10:07:13.299Z,36.50
2023-03-22T10:09:39.530Z,36.43
2023-03-22T10:12:05.777Z,36.54
2023-03-22T10:14:32.031Z,37.07
2023-03-22T10:16:58.317Z,36.54
2023-03-22T10:19:24.571Z,36.44
2023-03-22T10:21:52.029Z,35.61
2023-03-22T10:24:18.350Z,36.55
2023-03-22T10:26:44.633Z,36.32
2023-03-22T10:29:10.914Z,36.51
2023-03-22T10:31:37.268Z,36.74
2023-03-22T10:34:03.702Z,36.40
2023-03-22T10:36:30.003Z,36.24
2023-03-22T10:38:56.258Z,35.85
2023-03-22T10:41:22.496Z,35.68
2023-03-22T10:43:48.817Z,35.05
2023-03-22T10:46:15.108Z,34.31
2023-03-22T10:48:41.364Z,34.85
2023-03-22T10:51:07.716Z,33.93
2023-03-22T10:53:33.976Z,33.64
2023-03-22T10:56:00.275Z,33.38
2023-03-22T10:58:26.511Z,34.10
2023-03-22T11:00:52.803Z,33.56
2023-03-22T11:03:19.762Z,33.69
2023-03-22T11:05:46.028Z,34.00
2023-03-22T11:08:12.338Z,33.39
2023-03-22T11:10:38.693Z,34.02
2023-03-22T11:13:04.980Z,35.09
2023-03-22T11:15:31.283Z,34.39
2023-03-22T11:17:57.517Z,33.94
2023-03-22T11:20:23.818Z,34.26
2023-03-22T11:22:50.084Z,33.33
2023-03-22T11:25:16.442Z,33.10
2023-03-22T11:27:42.749Z,33.59
2023-03-22T11:30:08.996Z,33.89
2023-03-22T11:32:35.325Z,33.33
2023-03-22T11:35:01.620Z,32.63
2023-03-22T11:37:27.971Z,32.06
2023-03-22T11:39:54.230Z,31.39
2023-03-22T11:42:20.505Z,30.95
2023-03-22T11:44:46.907Z,31.28
2023-03-22T11:47:13.194Z,31.70
2023-03-22T11:49:39.458Z,28.79
2023-03-22T11:52:05.720Z,29.95
2023-03-22T11:54:32.046Z,28.96
2023-03-22T11:56:58.351Z,28.88
2023-03-22T11:59:24.629Z,27.22
2023-03-22T12:01:50.894Z,26.12
2023-03-22T12:04:17.237Z,27.52
2023-03-22T12:06:43.546Z,27.44
2023-03-22T12:09:09.803Z,26.50
2023-03-22T12:11:36.075Z,26.57
2023-03-22T12:14:02.344Z,27.08
2023-03-22T12:16:28.782Z,27.62
2023-03-22T12:18:55.097Z,27.55
2023-03-22T12:21:21.429Z,27.13
2023-03-22T12:23:47.668Z,25.91
2023-03-22T12:26:13.920Z,25.64
2023-03-22T12:28:40.156Z,27.90
2023-03-22T12:31:06.400Z,28.18
2023-03-22T12:33:32.686Z,28.32
2023-03-22T12:35:59.042Z,28.26
2023-03-22T12:38:25.353Z,26.19
2023-03-22T12:40:53.924Z,27.69
2023-03-22T12:43:20.150Z,27.75
2023-03-22T12:45:46.452Z,27.88
2023-03-22T12:48:12.925Z,26.23
2023-03-22T12:50:39.463Z,26.81
2023-03-22T12:53:05.925Z,26.96
2023-03-22T12:55:32.175Z,25.21
2023-03-22T12:57:58.517Z,24.10
2023-03-22T13:00:24.780Z,25.35
2023-03-22T13:02:51.097Z,25.23
2023-03-22T13:05:17.450Z,25.77
2023-03-22T13:07:43.690Z,25.64
2023-03-22T13:10:09.934Z,24.75
2023-03-22T13:12:36.244Z,24.40
2023-03-22T13:15:02.484Z,22.33
2023-03-22T13:17:28.800Z,23.39
2023-03-22T13:19:55.100Z,22.51
2023-03-22T13:22:21.404Z,23.62
2023-03-22T13:24:47.664Z,22.13
2023-03-22T13:27:13.904Z,23.36
2023-03-22T13:29:40.130Z,23.95
2023-03-22T13:32:06.532Z,23.71
2023-03-22T13:34:32.848Z,24.48
2023-03-22T13:36:59.120Z,24.24
2023-03-22T13:39:25.354Z,24.09
2023-03-22T13:41:51.630Z,24.81
2023-03-22T13:44:17.927Z,24.43
2023-03-22T13:46:44.228Z,24.71
2023-03-22T13:49:10.521Z,24.83
2023-03-22T13:51:36.878Z,24.60
2023-03-22T13:54:03.147Z,24.84
2023-03-22T13:56:29.401Z,24.13
2023-03-22T13:58:55.655Z,24.31
2023-03-22T14:01:21.915Z,24.44
2023-03-22T14:03:48.281Z,24.84
2023-03-22T14:06:14.567Z,25.93
2023-03-22T14:08:40.790Z,25.14
2023-03-22T14:11:07.028Z,25.25
2023-03-22T14:13:33.283Z,25.06
2023-03-22T14:15:59.604Z,25.30
2023-03-22T14:18:25.885Z,26.45
2023-03-22T14:20:52.129Z,25.64
